Time;durP1;ratioP1;P1;durP2;ratioP2;P2;SDS_P1;SDS_P2;PMS_P1;PMS_P2;Temp;Humidity;BMP_temperature;BMP_pressure;BME280_temperature;BME280_humidity;BME280_pressure;Samples;Min_cycle;Max_cycle;Signal;HPM_P1;HPM_P2
2023/10/21 00:00:09;;;;;;;;;;;;;;;10.53;100.00;94037.63;5105350;28;19943;-77
2023/10/21 00:02:35;;;;;;;;;;;;;;;10.53;100.00;94020.06;5105326;28;19943;-76
2023/10/21 00:05:02;;;;;;;;;;;;;;;10.53;100.00;94027.16;5106124;28;19941;-77
2023/10/21 00:07:28;;;;;;;;;;;;;;;10.53;100.00;94038.41;5103936;28;19951;-84
2023/10/21 00:09:53;;;;;;;;;;;;;;;10.54;100.00;94039.19;5087962;28;19951;-72
2023/10/21 00:12:20;;;;;;;;;;;;;;;10.53;100.00;94042.88;5105101;28;19997;-73
2023/10/21 00:14:46;;;;;;;;;;;;;;;10.53;100.00;94040.25;5105078;28;19939;-72
2023/10/21 00:17:11;;;;;;;;;;;;;;;10.51;100.00;94031.88;5104787;28;19993;-73
2023/10/21 00:19:37;;;;;;;;;;;;;;;10.51;100.00;94035.28;5105040;28;20162;-72
2023/10/21 00:22:03;;;;;;;;;;;;;;;10.51;100.00;94039.75;5105446;28;19959;-72
2023/10/21 00:24:29;;;;;;;;;;;;;;;10.52;100.00;94052.56;5104798;28;19992;-73
2023/10/21 00:26:55;;;;;;;;;;;;;;;10.51;100.00;94052.84;5104948;28;19952;-85
2023/10/21 00:29:21;;;;;;;;;;;;;;;10.51;100.00;94060.72;5086799;28;20222;-77
2023/10/21 00:31:47;;;;;;;;;;;;;;;10.50;100.00;94059.16;5105582;28;19958;-77
2023/10/21 00:34:12;;;;;;;;;;;;;;;10.49;100.00;94065.44;5104626;28;19947;-77
2023/10/21 00:36:38;;;;;;;;;;;;;;;10.47;100.00;94068.31;5104629;28;19939;-76
2023/10/21 00:39:10;;;;;;;;;;;;;;;10.48;100.00;94072.53;5104664;28;20124;-76
2023/10/21 00:41:37;;;;;;;;;;;;;;;10.46;100.00;94072.00;5105155;28;19955;-76
2023/10/21 00:44:04;;;;;;;;;;;;;;;10.47;100.00;94072.78;5104610;28;20130;-72
2023/10/21 00:46:30;;;;;;;;;;;;;;;10.48;100.00;94079.63;5104567;28;19943;-79
2023/10/21 00:48:55;;;;;;;;;;;;;;;10.49;100.00;94102.91;5104495;28;19943;-79
2023/10/21 00:51:21;;;;;;;;;;;;;;;10.49;100.00;94099.50;5105250;28;19941;-80
2023/10/21 00:53:48;;;;;;;;;;;;;;;10.52;100.00;94106.78;5103360;28;19941;-79
2023/10/21 00:56:14;;;;;;;;;;;;;;;10.54;100.00;94117.78;5104898;28;20146;-79
2023/10/21 00:58:40;;;;;;;;;;;;;;;10.56;100.00;94120.91;5105114;28;19957;-80
2023/10/21 01:01:06;;;;;;;;;;;;;;;10.60;100.00;94118.53;5104330;28;19950;-74
2023/10/21 01:03:33;;;;;;;;;;;;;;;10.60;100.00;94119.31;5104285;28;20234;-78
2023/10/21 01:05:59;;;;;;;;;;;;;;;10.63;100.00;94121.41;5104318;28;19942;-78
2023/10/21 01:08:25;;;;;;;;;;;;;;;10.67;100.00;94132.13;5104221;28;19938;-79
2023/10/21 01:10:51;;;;;;;;;;;;;;;10.70;100.00;94132.34;5103909;28;19938;-78
2023/10/21 01:13:17;;;;;;;;;;;;;;;10.74;100.00;94129.97;5104996;28;20103;-78
2023/10/21 01:15:43;;;;;;;;;;;;;;;10.76;100.00;94127.84;5104000;28;20170;-78
2023/10/21 01:18:09;;;;;;;;;;;;;;;10.80;100.00;94135.94;5104584;28;20157;-79
2023/10/21 01:20:39;;;;;;;;;;;;;;;10.81;100.00;94137.50;5104225;28;20004;-79
2023/10/21 01:23:06;;;;;;;;;;;;;;;10.80;100.00;94156.91;5104068;28;19937;-75
2023/10/21 01:25:32;;;;;;;;;;;;;;;10.80;100.00;94141.97;5104088;28;20206;-74
2023/10/21 01:27:58;;;;;;;;;;;;;;;10.79;100.00;94143.00;5104069;28;19970;-74
2023/10/21 01:30:24;;;;;;;;;;;;;;;10.80;100.00;94149.81;5103953;28;19947;-75
2023/10/21 01:32:50;;;;;;;;;;;;;;;10.80;100.00;94146.44;5104034;28;19944;-75
2023/10/21 01:35:17;;;;;;;;;;;;;;;10.80;100.00;94156.91;5103951;28;19956;-75
2023/10/21 01:37:43;;;;;;;;;;;;;;;10.80;100.00;94162.16;5105928;28;19956;-76
2023/10/21 01:40:12;;;;;;;;;;;;;;;10.77;100.00;94164.28;5108587;28;20193;-79
2023/10/21 01:42:39;;;;;;;;;;;;;;;10.77;100.00;94166.09;5107222;28;19945;-78
2023/10/21 01:45:05;;;;;;;;;;;;;;;10.78;100.00;94167.66;5107948;28;19937;-78
2023/10/21 01:47:31;;;;;;;;;;;;;;;10.77;100.00;94164.28;5108635;28;20216;-78
2023/10/21 01:50:01;;;;;;;;;;;;;;;10.79;100.00;94173.69;5108139;28;19942;-78
2023/10/21 01:52:26;;;;;;;;;;;;;;;10.77;100.00;94182.63;5107798;28;20222;-78
2023/10/21 01:54:53;;;;;;;;;;;;;;;10.79;100.00;94179.72;5107787;28;19937;-78
2023/10/21 01:57:19;;;;;;;;;;;;;;;10.82;100.00;94192.28;5107688;28;19975;-75
2023/10/21 01:59:45;;;;;;;;;;;;;;;10.82;100.00;94189.66;5108533;28;20197;-84
2023/10/21 02:02:11;;;;;;;;;;;;;;;10.81;100.00;94195.94;5107644;28;19945;-89
2023/10/21 02:04:37;;;;;;;;;;;;;;;10.80;100.00;94199.63;5106564;28;19945;-84
2023/10/21 02:07:03;;;;;;;;;;;;;;;10.82;100.00;94210.63;5106357;28;19977;-86
2023/10/21 02:09:29;;;;;;;;;;;;;;;10.84;100.00;94215.63;5106379;28;20152;-83
2023/10/21 02:11:55;;;;;;;;;;;;;;;10.84;100.00;94233.97;5106335;28;19941;-86
2023/10/21 02:14:22;;;;;;;;;;;;;;;10.84;100.00;94234.75;5106178;28;19936;-86
2023/10/21 02:16:52;;;;;;;;;;;;;;;10.86;100.00;94244.97;5106186;28;19981;-79
2023/10/21 02:19:17;;;;;;;;;;;;;;;10.88;100.00;94242.84;5106135;28;19963;-73
2023/10/21 02:21:43;;;;;;;;;;;;;;;10.87;100.00;94251.75;5107294;28;19941;-73
2023/10/21 02:24:09;;;;;;;;;;;;;;;10.90;100.00;94259.88;5106053;28;19952;-73
2023/10/21 02:26:35;;;;;;;;;;;;;;;10.94;100.00;94270.56;5107713;28;20113;-72
2023/10/21 02:29:01;;;;;;;;;;;;;;;10.97;100.00;94272.66;5107677;28;19948;-73
2023/10/21 02:31:27;;;;;;;;;;;;;;;11.00;100.00;94289.69;5107065;28;19939;-73
2023/10/21 02:33:53;;;;;;;;;;;;;;;11.04;100.00;94294.09;5107077;28;19974;-79
2023/10/21 02:36:18;;;;;;;;;;;;;;;11.05;100.00;94287.03;5107194;28;19961;-77
2023/10/21 02:38:44;;;;;;;;;;;;;;;11.05;100.00;94294.91;5107426;28;20288;-79
2023/10/21 02:41:10;;;;;;;;;;;;;;;11.04;100.00;94298.56;5106549;28;19945;-80
2023/10/21 02:43:36;;;;;;;;;;;;;;;10.99;100.00;94311.72;5106871;28;19973;-77
2023/10/21 02:46:09;;;;;;;;;;;;;;;10.94;100.00;94313.34;5107343;28;19940;-79
2023/10/21 02:48:35;;;;;;;;;;;;;;;10.88;100.00;94326.75;5088911;28;19949;-78
2023/10/21 02:51:09;;;;;;;;;;;;;;;10.84;100.00;94333.59;5106750;28;20257;-79
2023/10/21 02:53:35;;;;;;;;;;;;;;;10.77;100.00;94334.66;5106424;28;19941;-79
2023/10/21 02:56:05;;;;;;;;;;;;;;;10.73;100.00;94338.06;5106280;28;19946;-76
2023/10/21 02:58:31;;;;;;;;;;;;;;;10.67;100.00;94339.97;5106486;28;19951;-75
2023/10/21 03:00:57;;;;;;;;;;;;;;;10.61;100.00;94337.63;5106518;28;19941;-74
2023/10/21 03:03:23;;;;;;;;;;;;;;;10.60;100.00;94349.94;5106506;28;20155;-75
2023/10/21 03:05:48;;;;;;;;;;;;;;;10.62;100.00;94358.31;5105272;28;19946;-74
2023/10/21 03:08:14;;;;;;;;;;;;;;;10.66;100.00;94348.88;5106891;28;19946;-74
2023/10/21 03:10:40;;;;;;;;;;;;;;;10.67;100.00;94339.19;5106624;28;19995;-75
2023/10/21 03:13:06;;;;;;;;;;;;;;;10.66;100.00;94351.47;5106798;28;19940;-77
2023/10/21 03:15:35;;;;;;;;;;;;;;;10.63;100.00;94353.88;5106490;28;19988;-77
2023/10/21 03:18:01;;;;;;;;;;;;;;;10.61;100.00;94343.66;5106695;28;19954;-77
2023/10/21 03:20:30;;;;;;;;;;;;;;;10.60;100.00;94349.16;5106650;28;19982;-77
2023/10/21 03:22:56;;;;;;;;;;;;;;;10.55;100.00;94352.59;5106138;28;19948;-76
2023/10/21 03:25:22;;;;;;;;;;;;;;;10.51;100.00;94354.19;5106586;28;19938;-81
2023/10/21 03:27:48;;;;;;;;;;;;;;;10.47;100.00;94353.91;5106822;28;19944;-80
2023/10/21 03:30:14;;;;;;;;;;;;;;;10.45;100.00;94358.66;5106511;28;20006;-73
2023/10/21 03:32:40;;;;;;;;;;;;;;;10.42;100.00;94361.81;5105903;28;19940;-77
2023/10/21 03:35:06;;;;;;;;;;;;;;;10.41;100.00;94367.31;5105803;28;19958;-78
2023/10/21 03:37:34;;;;;;;;;;;;;;;10.34;100.00;94364.97;5104617;28;19967;-78
2023/10/21 03:39:59;;;;;;;;;;;;;;;10.32;100.00;94367.09;5105766;28;19935;-77
2023/10/21 03:42:26;;;;;;;;;;;;;;;10.28;100.00;94369.41;5105740;28;20010;-77
2023/10/21 03:44:51;;;;;;;;;;;;;;;10.24;100.00;94371.00;5106515;28;19936;-78
2023/10/21 03:47:17;;;;;;;;;;;;;;;10.17;100.00;94383.59;5106145;28;19943;-73
2023/10/21 03:49:43;;;;;;;;;;;;;;;10.13;100.00;94382.56;5106156;28;19941;-73
2023/10/21 03:52:09;;;;;;;;;;;;;;;10.07;100.00;94379.16;5105513;28;19962;-80
2023/10/21 03:54:35;;;;;;;;;;;;;;;10.03;100.00;94385.97;5105402;28;19938;-82
2023/10/21 03:57:01;;;;;;;;;;;;;;;10.00;100.00;94385.75;5105683;28;19941;-77
2023/10/21 03:59:27;;;;;;;;;;;;;;;9.99;100.00;94394.63;5105051;28;20017;-78
2023/10/21 04:01:53;;;;;;;;;;;;;;;10.00;100.00;94393.59;5105588;28;20213;-78
2023/10/21 04:04:19;;;;;;;;;;;;;;;10.01;100.00;94416.09;5106101;28;19938;-78
2023/10/21 04:06:45;;;;;;;;;;;;;;;10.00;100.00;94407.47;5105771;28;19931;-85
2023/10/21 04:09:11;;;;;;;;;;;;;;;10.01;100.00;94405.63;5087975;28;19940;-72
2023/10/21 04:11:37;;;;;;;;;;;;;;;10.01;100.00;94414.25;5105102;28;19949;-72
2023/10/21 04:14:05;;;;;;;;;;;;;;;10.01;100.00;94426.56;5105073;28;20005;-73
2023/10/21 04:16:31;;;;;;;;;;;;;;;9.96;100.00;94433.38;5104871;28;20176;-73
2023/10/21 04:18:57;;;;;;;;;;;;;;;9.95;100.00;94434.44;5104286;28;19962;-73
2023/10/21 04:21:25;;;;;;;;;;;;;;;9.95;100.00;94436.25;5105145;28;19996;-73
2023/10/21 04:23:51;;;;;;;;;;;;;;;9.95;100.00;94450.16;5103826;28;20251;-72
2023/10/21 04:26:17;;;;;;;;;;;;;;;10.00;100.00;94453.81;5104965;28;19941;-72
2023/10/21 04:28:43;;;;;;;;;;;;;;;9.99;100.00;94455.63;5104835;28;19964;-71
2023/10/21 04:31:08;;;;;;;;;;;;;;;10.00;100.00;94464.28;5104896;28;19942;-72
2023/10/21 04:33:34;;;;;;;;;;;;;;;9.98;100.00;94464.53;5105570;28;19940;-71
2023/10/21 04:36:00;;;;;;;;;;;;;;;9.98;100.00;94471.63;5104683;28;19957;-72
2023/10/21 04:38:26;;;;;;;;;;;;;;;9.98;100.00;94480.25;5105108;28;20167;-73
2023/10/21 04:40:53;;;;;;;;;;;;;;;10.01;100.00;94481.56;5104660;28;19944;-72
2023/10/21 04:43:19;;;;;;;;;;;;;;;10.01;100.00;94492.03;5104604;28;19942;-78
2023/10/21 04:45:44;;;;;;;;;;;;;;;10.02;100.00;94486.53;5104273;28;19943;-72
2023/10/21 04:48:10;;;;;;;;;;;;;;;10.05;100.00;94490.47;5105352;28;20117;-72
2023/10/21 04:50:36;;;;;;;;;;;;;;;10.06;100.00;94481.56;5104417;28;19972;-72
2023/10/21 04:53:02;;;;;;;;;;;;;;;10.05;100.00;94475.53;5105274;28;19934;-71
2023/10/21 04:55:28;;;;;;;;;;;;;;;10.06;100.00;94490.19;5104419;28;20008;-71
2023/10/21 04:57:54;;;;;;;;;;;;;;;10.07;100.00;94491.75;5104356;28;19953;-72
2023/10/21 05:00:19;;;;;;;;;;;;;;;10.09;100.00;94489.66;5104404;28;19936;-73
2023/10/21 05:02:45;;;;;;;;;;;;;;;10.09;100.00;94492.28;5104025;28;19940;-75
2023/10/21 05:05:12;;;;;;;;;;;;;;;10.09;100.00;94501.97;5104296;28;19944;-71
2023/10/21 05:07:38;;;;;;;;;;;;;;;10.16;100.00;94502.50;5104282;28;19937;-72
2023/10/21 05:10:04;;;;;;;;;;;;;;;10.27;100.00;94505.91;5104224;28;19939;-72
2023/10/21 05:12:30;;;;;;;;;;;;;;;10.38;100.00;94514.59;5104008;28;19938;-71
2023/10/21 05:14:56;;;;;;;;;;;;;;;10.44;100.00;94518.78;5104147;28;20230;-72
2023/10/21 05:17:22;;;;;;;;;;;;;;;10.46;100.00;94522.69;5102828;28;19991;-71
2023/10/21 05:19:47;;;;;;;;;;;;;;;10.50;100.00;94522.94;5103715;28;19971;-75
2023/10/21 05:22:13;;;;;;;;;;;;;;;10.53;100.00;94527.66;5104074;28;19942;-76
2023/10/21 05:24:39;;;;;;;;;;;;;;;10.58;100.00;94530.25;5104616;28;19947;-75
2023/10/21 05:27:05;;;;;;;;;;;;;;;10.61;100.00;94534.97;5102943;28;19982;-75
2023/10/21 05:29:31;;;;;;;;;;;;;;;10.61;100.00;94534.97;5104842;28;19940;-73
2023/10/21 05:31:57;;;;;;;;;;;;;;;10.62;100.00;94543.63;5103991;28;19936;-74
2023/10/21 05:34:22;;;;;;;;;;;;;;;10.59;100.00;94542.31;5104496;28;20009;-76
2023/10/21 05:36:48;;;;;;;;;;;;;;;10.56;100.00;94554.13;5104043;28;19992;-76
2023/10/21 05:39:14;;;;;;;;;;;;;;;10.54;100.00;94560.66;5104689;28;20006;-72
2023/10/21 05:41:40;;;;;;;;;;;;;;;10.52;100.00;94568.81;5103957;28;20220;-72
2023/10/21 05:44:07;;;;;;;;;;;;;;;10.53;100.00;94580.84;5104397;28;19937;-72
2023/10/21 05:46:33;;;;;;;;;;;;;;;10.54;100.00;94581.63;5103874;28;19944;-71
2023/10/21 05:48:59;;;;;;;;;;;;;;;10.54;100.00;94579.81;5104135;28;19939;-72
2023/10/21 05:51:25;;;;;;;;;;;;;;;10.54;100.00;94587.69;5103796;28;19937;-72
2023/10/21 05:53:51;;;;;;;;;;;;;;;10.53;100.00;94593.94;5103820;28;19934;-72
2023/10/21 05:56:17;;;;;;;;;;;;;;;10.50;100.00;94591.88;5104076;28;20104;-72
2023/10/21 05:58:43;;;;;;;;;;;;;;;10.49;100.00;94600.75;5103764;28;19957;-90
2023/10/21 06:01:09;;;;;;;;;;;;;;;10.52;100.00;94617.78;5103461;28;19948;-88
2023/10/21 06:03:35;;;;;;;;;;;;;;;10.59;100.00;94620.94;5102473;28;19943;-90
2023/10/21 06:06:02;;;;;;;;;;;;;;;10.68;100.00;94631.69;5104332;28;19945;-89
2023/10/21 06:08:28;;;;;;;;;;;;;;;10.70;100.00;94627.75;5103722;28;19938;-90
2023/10/21 06:10:54;;;;;;;;;;;;;;;10.70;100.00;94629.59;5102620;28;19935;-89
2023/10/21 06:13:20;;;;;;;;;;;;;;;10.68;100.00;94635.09;5085750;28;20111;-90
2023/10/21 06:15:49;;;;;;;;;;;;;;;10.68;100.00;94629.84;5102430;28;19979;-76
2023/10/21 06:18:15;;;;;;;;;;;;;;;10.72;100.00;94640.59;5104314;28;19955;-71
2023/10/21 06:20:45;;;;;;;;;;;;;;;10.74;100.00;94639.28;5104096;28;20215;-71
2023/10/21 06:23:11;;;;;;;;;;;;;;;10.76;100.00;94650.28;5103876;28;19935;-71
2023/10/21 06:25:36;;;;;;;;;;;;;;;10.82;100.00;94652.94;5107199;28;19958;-71
2023/10/21 06:28:02;;;;;;;;;;;;;;;10.85;100.00;94660.25;5107199;28;19947;-72
2023/10/21 06:30:28;;;;;;;;;;;;;;;10.91;100.00;94672.31;5107070;28;19972;-72
2023/10/21 06:32:55;;;;;;;;;;;;;;;10.97;100.00;94684.38;5107103;28;19952;-72
2023/10/21 06:35:21;;;;;;;;;;;;;;;11.05;100.00;94696.97;5107024;28;19950;-72
2023/10/21 06:37:49;;;;;;;;;;;;;;;11.11;100.00;94690.69;5107514;28;19936;-78
2023/10/21 06:40:15;;;;;;;;;;;;;;;11.25;100.00;94690.91;5107432;28;19936;-79
2023/10/21 06:42:41;;;;;;;;;;;;;;;11.49;100.00;94682.47;5105773;28;20124;-77
2023/10/21 06:45:08;;;;;;;;;;;;;;;11.80;100.00;94688.44;5106818;28;19935;-78
2023/10/21 06:47:34;;;;;;;;;;;;;;;12.03;100.00;94699.38;5107038;28;19935;-78
2023/10/21 06:50:00;;;;;;;;;;;;;;;12.05;100.00;94705.16;5106792;28;19940;-79
2023/10/21 06:52:26;;;;;;;;;;;;;;;12.03;100.00;94715.16;5106667;28;19939;-72
2023/10/21 06:54:53;;;;;;;;;;;;;;;12.21;100.00;94711.13;5107180;28;19986;-72
2023/10/21 06:57:21;;;;;;;;;;;;;;;12.49;100.00;94713.06;5106576;28;19964;-72
2023/10/21 06:59:47;;;;;;;;;;;;;;;12.77;100.00;94703.69;5106789;28;19969;-72
2023/10/21 07:02:14;;;;;;;;;;;;;;;13.01;100.00;94713.50;5106506;28;19943;-72
2023/10/21 07:04:40;;;;;;;;;;;;;;;13.17;100.00;94712.31;5106962;28;19941;-72
2023/10/21 07:07:05;;;;;;;;;;;;;;;13.29;100.00;94695.41;5106410;28;19936;-74
2023/10/21 07:09:31;;;;;;;;;;;;;;;13.39;100.00;94713.72;5107117;28;20258;-79
2023/10/21 07:11:57;;;;;;;;;;;;;;;13.45;100.00;94715.25;5106353;28;19943;-73
2023/10/21 07:14:23;;;;;;;;;;;;;;;13.45;100.00;94732.91;5106237;28;20160;-79
2023/10/21 07:16:49;;;;;;;;;;;;;;;13.46;100.00;94737.91;5106156;28;20275;-79
2023/10/21 07:19:14;;;;;;;;;;;;;;;13.50;100.00;94748.66;5106868;28;19966;-81
2023/10/21 07:21:41;;;;;;;;;;;;;;;13.51;100.00;94744.97;5106689;28;19956;-78
2023/10/21 07:24:07;;;;;;;;;;;;;;;13.55;100.00;94753.88;5106105;28;19936;-80
2023/10/21 07:26:34;;;;;;;;;;;;;;;13.58;100.00;94751.47;5105946;28;20255;-78
2023/10/21 07:29:00;;;;;;;;;;;;;;;13.60;100.00;94753.81;5106184;28;19946;-78
2023/10/21 07:31:26;;;;;;;;;;;;;;;13.48;100.00;94777.09;5104772;28;19934;-71
2023/10/21 07:33:52;;;;;;;;;;;;;;;13.41;100.00;94764.28;5106437;28;19987;-72
2023/10/21 07:36:18;;;;;;;;;;;;;;;13.47;100.00;94786.09;5106491;28;19950;-73
2023/10/21 07:38:44;;;;;;;;;;;;;;;13.53;100.00;94784.97;5104601;28;19950;-72
2023/10/21 07:41:11;;;;;;;;;;;;;;;13.57;100.00;94778.09;5105706;28;20020;-72
2023/10/21 07:43:37;;;;;;;;;;;;;;;13.67;100.00;94808.81;5106374;28;19945;-73
2023/10/21 07:46:05;;;;;;;;;;;;;;;13.73;100.00;94782.16;5106124;28;19981;-72
2023/10/21 07:48:31;;;;;;;;;;;;;;;13.83;100.00;94797.06;5104296;28;19969;-77
2023/10/21 07:50:58;;;;;;;;;;;;;;;13.86;100.00;94782.53;5105561;28;20226;-73
2023/10/21 07:53:23;;;;;;;;;;;;;;;13.87;100.00;94784.91;5106023;28;19943;-74
2023/10/21 07:55:49;;;;;;;;;;;;;;;13.91;100.00;94800.97;5087476;28;19940;-74
2023/10/21 07:58:15;;;;;;;;;;;;;;;13.99;100.00;94816.16;5105819;28;19931;-75
2023/10/21 08:00:42;;;;;;;;;;;;;;;14.01;100.00;94798.22;5106079;28;20119;-73
2023/10/21 08:03:08;;;;;;;;;;;;;;;14.02;100.00;94795.28;5106052;28;20089;-74
2023/10/21 08:05:33;;;;;;;;;;;;;;;14.05;100.00;94793.16;5105205;28;19957;-84
2023/10/21 08:07:59;;;;;;;;;;;;;;;14.10;100.00;94822.88;5105481;28;19935;-71
2023/10/21 08:10:25;;;;;;;;;;;;;;;14.13;100.00;94817.06;5104814;28;19936;-73
2023/10/21 08:12:51;;;;;;;;;;;;;;;14.19;100.00;94807.25;5105444;28;19988;-72
2023/10/21 08:15:17;;;;;;;;;;;;;;;14.27;100.00;94809.25;5104843;28;19947;-72
2023/10/21 08:17:43;;;;;;;;;;;;;;;14.31;100.00;94804.22;5105132;28;19962;-72
2023/10/21 08:20:09;;;;;;;;;;;;;;;14.39;100.00;94814.94;5105783;28;19975;-72
2023/10/21 08:22:35;;;;;;;;;;;;;;;14.44;100.00;94808.81;5103764;28;20249;-76
2023/10/21 08:25:01;;;;;;;;;;;;;;;14.49;100.00;94808.75;5103941;28;19976;-78
2023/10/21 08:27:27;;;;;;;;;;;;;;;14.51;100.00;94816.38;5105640;28;20011;-90
2023/10/21 08:29:53;;;;;;;;;;;;;;;14.54;100.00;94810.53;5087554;28;19952;-84
2023/10/21 08:32:19;;;;;;;;;;;;;;;14.60;100.00;94823.41;5104743;28;19946;-85
2023/10/21 08:34:45;;;;;;;;;;;;;;;14.66;100.00;94839.97;5104898;28;20177;-84
2023/10/21 08:37:11;;;;;;;;;;;;;;;14.57;100.00;94825.81;5104776;28;19936;-85
2023/10/21 08:39:37;;;;;;;;;;;;;;;14.54;100.00;94835.06;5104657;28;19966;-83
2023/10/21 08:42:03;;;;;;;;;;;;;;;14.59;100.00;94834.25;5105241;28;19937;-84
2023/10/21 08:44:30;;;;;;;;;;;;;;;14.64;100.00;94842.09;5104644;28;19943;-76
2023/10/21 08:46:57;;;;;;;;;;;;;;;14.67;100.00;94830.19;5104743;28;19942;-75
2023/10/21 08:49:23;;;;;;;;;;;;;;;14.71;100.00;94861.00;5104531;28;19940;-76
2023/10/21 08:51:51;;;;;;;;;;;;;;;14.66;100.00;94832.06;5104621;28;20133;-75
2023/10/21 08:54:18;;;;;;;;;;;;;;;14.52;100.00;94871.47;5105037;28;19962;-76
2023/10/21 08:56:44;;;;;;;;;;;;;;;14.40;100.00;94868.44;5104458;28;19944;-75
2023/10/21 08:59:10;;;;;;;;;;;;;;;14.34;100.00;94898.56;5105173;28;19958;-75
2023/10/21 09:01:36;;;;;;;;;;;;;;;14.25;100.00;94881.81;5104379;28;19946;-72
2023/10/21 09:04:03;;;;;;;;;;;;;;;14.12;100.00;94870.84;5104244;28;19960;-78
2023/10/21 09:06:29;;;;;;;;;;;;;;;14.04;100.00;94915.47;5103176;28;19938;-78
2023/10/21 09:08:55;;;;;;;;;;;;;;;13.96;100.00;94909.75;5104356;28;19945;-78
2023/10/21 09:11:25;;;;;;;;;;;;;;;13.89;100.00;94892.69;5105053;28;19948;-79
2023/10/21 09:13:52;;;;;;;;;;;;;;;13.81;100.00;94918.53;5104257;28;19942;-79
2023/10/21 09:16:19;;;;;;;;;;;;;;;13.74;100.00;94896.22;5103992;28;19963;-79
2023/10/21 09:18:58;;;;;;;;;;;;;;;13.65;100.00;94884.69;5104665;28;19965;-76
2023/10/21 09:21:38;;;;;;;;;;;;;;;13.60;100.00;94907.38;5104199;28;20242;-79
2023/10/21 09:24:11;;;;;;;;;;;;;;;13.58;100.00;94916.59;5104169;28;19945;-78
2023/10/21 09:26:38;;;;;;;;;;;;;;;13.55;100.00;94886.34;5104117;28;19963;-79
2023/10/21 09:29:12;;;;;;;;;;;;;;;13.56;100.00;94903.69;5104117;28;19937;-78
2023/10/21 09:31:46;;;;;;;;;;;;;;;13.57;100.00;94886.84;5104027;28;19939;-79
2023/10/21 09:34:20;;;;;;;;;;;;;;;13.64;100.00;94891.03;5104013;28;19937;-79
2023/10/21 09:36:47;;;;;;;;;;;;;;;13.70;100.00;94916.28;5104029;28;19958;-71
2023/10/21 09:39:13;;;;;;;;;;;;;;;13.78;100.00;94891.97;5103756;28;20271;-79
2023/10/21 09:41:40;;;;;;;;;;;;;;;13.89;100.00;94904.00;5102930;28;19942;-81
2023/10/21 09:44:07;;;;;;;;;;;;;;;14.05;100.00;94902.03;5102914;28;19941;-81
2023/10/21 09:46:34;;;;;;;;;;;;;;;14.22;100.00;94893.69;5102732;28;19956;-84
2023/10/21 09:49:03;;;;;;;;;;;;;;;14.37;100.00;94893.53;5102860;28;20219;-81
2023/10/21 09:51:32;;;;;;;;;;;;;;;14.48;100.00;94883.66;5085834;28;19941;-74
2023/10/21 09:54:00;;;;;;;;;;;;;;;14.57;100.00;94837.19;5103538;28;20122;-80
2023/10/21 09:56:26;;;;;;;;;;;;;;;14.65;100.00;94880.59;5085865;28;19940;-79
2023/10/21 09:58:54;;;;;;;;;;;;;;;14.69;100.00;94870.28;5105266;28;19960;-73
2023/10/21 10:01:23;;;;;;;;;;;;;;;14.67;100.00;94852.09;5107776;28;19943;-73
2023/10/21 10:03:52;;;;;;;;;;;;;;;14.64;100.00;94842.09;5107696;28;20260;-73
2023/10/21 10:06:19;;;;;;;;;;;;;;;14.65;100.00;94874.53;5107372;28;19954;-74
2023/10/21 10:08:45;;;;;;;;;;;;;;;14.65;100.00;94859.50;5107681;28;20145;-73
2023/10/21 10:11:15;;;;;;;;;;;;;;;14.65;99.71;94858.72;5107565;28;19942;-72
2023/10/21 10:13:48;;;;;;;;;;;;;;;14.64;100.00;94872.97;5107541;28;19935;-74
2023/10/21 10:16:18;;;;;;;;;;;;;;;14.64;100.00;94868.50;5107634;28;19965;-74
2023/10/21 10:18:49;;;;;;;;;;;;;;;14.66;100.00;94870.81;5089224;28;19946;-81
2023/10/21 10:21:20;;;;;;;;;;;;;;;14.63;99.57;94856.34;5106287;28;20229;-80
2023/10/21 10:23:53;;;;;;;;;;;;;;;14.60;98.14;94859.56;5108094;28;19942;-81
2023/10/21 10:26:37;;;;;;;;;;;;;;;14.55;100.00;94885.97;5107841;28;19950;-81
2023/10/21 10:29:17;;;;;;;;;;;;;;;14.51;98.70;94874.41;5106231;28;20254;-80
2023/10/21 10:32:03;;;;;;;;;;;;;;;14.49;97.85;94890.53;5107034;28;20121;-75
2023/10/21 10:34:29;;;;;;;;;;;;;;;14.47;95.49;94882.09;5107167;28;19957;-73
2023/10/21 10:36:55;;;;;;;;;;;;;;;14.46;99.27;94890.28;5107909;28;19979;-73
2023/10/21 10:39:41;;;;;;;;;;;;;;;14.47;100.00;94905.84;5106932;28;19965;-74
2023/10/21 10:42:10;;;;;;;;;;;;;;;14.46;98.87;94890.28;5107147;28;19948;-73
2023/10/21 10:44:37;;;;;;;;;;;;;;;14.46;94.25;94863.91;5107432;28;19937;-73
2023/10/21 10:47:04;;;;;;;;;;;;;;;14.49;100.00;94910.81;5107132;28;19946;-73
2023/10/21 10:49:30;;;;;;;;;;;;;;;14.45;90.56;94849.94;5106815;28;19941;-73
2023/10/21 10:51:57;;;;;;;;;;;;;;;14.44;92.21;94860.78;5107593;28;19949;-75
2023/10/21 10:54:25;;;;;;;;;;;;;;;14.47;94.94;94862.84;5106720;28;20220;-79
2023/10/21 10:56:51;;;;;;;;;;;;;;;14.54;95.33;94866.72;5106687;28;19937;-79
2023/10/21 10:59:20;;;;;;;;;;;;;;;14.71;97.83;94883.97;5105498;28;20003;-78
2023/10/21 11:01:56;;;;;;;;;;;;;;;14.82;98.18;94882.78;5106220;28;19944;-79
2023/10/21 11:04:21;;;;;;;;;;;;;;;14.91;94.45;94864.44;5107364;28;19999;-79
2023/10/21 11:06:47;;;;;;;;;;;;;;;14.98;97.71;94889.44;5105427;28;19951;-79
2023/10/21 11:09:30;;;;;;;;;;;;;;;14.94;92.59;94869.19;5106145;28;19939;-72
2023/10/21 11:11:57;;;;;;;;;;;;;;;14.90;92.75;94868.94;5107009;28;19942;-74
2023/10/21 11:14:24;;;;;;;;;;;;;;;14.85;94.09;94878.81;5107068;28;19938;-74
2023/10/21 11:16:50;;;;;;;;;;;;;;;14.80;92.63;94872.53;5106066;28;19975;-74
2023/10/21 11:19:17;;;;;;;;;;;;;;;14.80;94.98;94875.16;5106899;28;19968;-74
2023/10/21 11:21:48;;;;;;;;;;;;;;;14.81;96.92;94889.13;5107005;28;19936;-74
2023/10/21 11:24:14;;;;;;;;;;;;;;;14.79;94.67;94886.75;5106752;28;20141;-74
2023/10/21 11:26:41;;;;;;;;;;;;;;;14.76;94.21;94889.19;5106079;28;19941;-81
2023/10/21 11:29:07;;;;;;;;;;;;;;;14.72;94.85;94902.16;5106081;28;20137;-72
2023/10/21 11:31:36;;;;;;;;;;;;;;;14.77;96.18;94910.00;5106576;28;19936;-72
2023/10/21 11:34:11;;;;;;;;;;;;;;;14.83;95.56;94905.47;5104801;28;19945;-71
2023/10/21 11:36:38;;;;;;;;;;;;;;;15.04;92.76;94882.25;5105918;28;19949;-71
2023/10/21 11:39:13;;;;;;;;;;;;;;;15.18;90.95;94875.19;5105835;28;20190;-70
2023/10/21 11:41:46;;;;;;;;;;;;;;;15.23;90.54;94874.34;5106294;28;19950;-71
2023/10/21 11:44:12;;;;;;;;;;;;;;;15.18;91.55;94875.19;5106339;28;19944;-71
2023/10/21 11:46:39;;;;;;;;;;;;;;;15.13;90.49;94879.75;5104642;28;20256;-77
2023/10/21 11:49:13;;;;;;;;;;;;;;;15.08;89.20;94874.56;5105365;28;19968;-74
2023/10/21 11:51:40;;;;;;;;;;;;;;;15.06;89.97;94882.75;5106148;28;19951;-74
2023/10/21 11:54:09;;;;;;;;;;;;;;;15.07;91.03;94909.91;5105586;28;19940;-74
2023/10/21 11:56:57;;;;;;;;;;;;;;;15.05;88.23;94889.09;5105478;28;19937;-74
2023/10/21 12:05:34;;;;;;;;;;;;;;;15.19;91.14;94903.16;5105439;28;20133;-73
2023/10/21 12:16:16;;;;;;;;;;;;;;;15.17;91.27;94917.72;5104409;28;19967;-84
2023/10/21 12:22:13;;;;;;;;;;;;;;;15.11;90.16;94947.88;5104417;28;19943;-85
2023/10/21 12:39:56;;;;;;;;;;;;;;;15.20;86.83;94944.34;5104559;28;19954;-70
2023/10/21 12:42:29;;;;;;;;;;;;;;;15.22;91.63;94981.00;5104715;28;19939;-81
2023/10/21 12:44:57;;;;;;;;;;;;;;;15.23;88.48;94966.75;5104998;28;20086;-74
2023/10/21 12:47:23;;;;;;;;;;;;;;;15.28;87.94;94971.19;5105151;28;19940;-75
2023/10/21 12:49:50;;;;;;;;;;;;;;;15.31;87.07;94960.06;5104585;28;19944;-74
2023/10/21 12:52:16;;;;;;;;;;;;;;;15.33;86.33;94952.63;5104598;28;19936;-74
2023/10/21 12:54:43;;;;;;;;;;;;;;;15.33;88.10;94969.28;5104483;28;19940;-74
2023/10/21 12:57:10;;;;;;;;;;;;;;;15.37;86.50;94967.63;5104426;28;19935;-74
2023/10/21 12:59:36;;;;;;;;;;;;;;;15.47;87.63;94956.13;5104346;28;19958;-73
2023/10/21 13:02:07;;;;;;;;;;;;;;;15.53;87.65;94965.56;5104415;28;20141;-81
2023/10/21 13:04:37;;;;;;;;;;;;;;;15.59;87.05;94971.56;5104875;28;19936;-81
2023/10/21 13:07:06;;;;;;;;;;;;;;;15.51;85.01;94949.22;5104918;28;19934;-80
2023/10/21 13:09:32;;;;;;;;;;;;;;;15.44;86.97;94980.47;5104518;28;19938;-81